Terminal Aerodrome Forecast
Issued by NWS Twin Cities, MN

Home | Current Version | Previous Version | Text Only | Print | Product List | Glossary Off
Versions: 1 2 3 4 5 6 7 8 9 10 11 12 13 14 15 16 17 18

000
FTUS43 KMPX 171737
TAFSTC
TAF
KSTC 171737Z 1718/1818 29008KT P6SM SCT025
     FM180000 29004KT P6SM FEW130
     FM181100 VRB03KT P6SM BKN110
     FM181500 14007KT P6SM BKN060=

USA.gov is the U.S. government's official web portal to all federal, state and local government web resources and services.